sensor_id;sensor_type;location;lat;lon;timestamp;P1;durP1;ratioP1;P2;durP2;ratioP2
26113;SDS011;13966;48.828;9.064;2022-12-18T00:01:48;109.28;;;44.80;;
26113;SDS011;13966;48.828;9.064;2022-12-18T00:04:24;104.38;;;46.65;;
26113;SDS011;13966;48.828;9.064;2022-12-18T00:06:50;122.28;;;50.47;;
26113;SDS011;13966;48.828;9.064;2022-12-18T00:09:16;114.43;;;47.47;;
26113;SDS011;13966;48.828;9.064;2022-12-18T00:11:42;147.02;;;53.00;;
26113;SDS011;13966;48.828;9.064;2022-12-18T00:14:08;144.55;;;54.95;;
26113;SDS011;13966;48.828;9.064;2022-12-18T00:16:36;127.70;;;50.65;;
26113;SDS011;13966;48.828;9.064;2022-12-18T00:19:03;112.88;;;49.00;;
26113;SDS011;13966;48.828;9.064;2022-12-18T00:21:30;111.70;;;47.70;;
26113;SDS011;13966;48.828;9.064;2022-12-18T00:23:57;107.30;;;45.92;;
26113;SDS011;13966;48.828;9.064;2022-12-18T00:26:25;110.30;;;48.70;;
26113;SDS011;13966;48.828;9.064;2022-12-18T00:28:51;104.30;;;46.05;;
26113;SDS011;13966;48.828;9.064;2022-12-18T00:31:19;107.07;;;45.40;;
26113;SDS011;13966;48.828;9.064;2022-12-18T00:33:45;101.60;;;42.90;;
26113;SDS011;13966;48.828;9.064;2022-12-18T00:36:21;96.20;;;44.65;;
26113;SDS011;13966;48.828;9.064;2022-12-18T00:38:47;91.10;;;40.97;;
26113;SDS011;13966;48.828;9.064;2022-12-18T00:41:14;96.65;;;41.85;;
26113;SDS011;13966;48.828;9.064;2022-12-18T00:44:00;89.05;;;41.60;;
26113;SDS011;13966;48.828;9.064;2022-12-18T00:46:26;96.00;;;43.33;;
26113;SDS011;13966;48.828;9.064;2022-12-18T00:48:52;97.55;;;44.08;;
26113;SDS011;13966;48.828;9.064;2022-12-18T00:51:18;94.60;;;42.95;;
26113;SDS011;13966;48.828;9.064;2022-12-18T00:53:44;97.18;;;42.13;;
26113;SDS011;13966;48.828;9.064;2022-12-18T00:56:10;94.60;;;41.55;;
26113;SDS011;13966;48.828;9.064;2022-12-18T00:58:36;91.55;;;40.22;;
26113;SDS011;13966;48.828;9.064;2022-12-18T01:01:05;93.30;;;40.67;;
26113;SDS011;13966;48.828;9.064;2022-12-18T01:03:31;90.40;;;40.33;;
26113;SDS011;13966;48.828;9.064;2022-12-18T01:05:57;85.05;;;40.25;;
26113;SDS011;13966;48.828;9.064;2022-12-18T01:08:24;82.40;;;40.78;;
26113;SDS011;13966;48.828;9.064;2022-12-18T01:10:50;87.03;;;40.17;;
26113;SDS011;13966;48.828;9.064;2022-12-18T01:13:16;91.20;;;42.00;;
26113;SDS011;13966;48.828;9.064;2022-12-18T01:15:51;85.72;;;40.45;;
26113;SDS011;13966;48.828;9.064;2022-12-18T01:18:17;82.15;;;39.10;;
26113;SDS011;13966;48.828;9.064;2022-12-18T01:20:43;93.10;;;39.22;;
26113;SDS011;13966;48.828;9.064;2022-12-18T01:23:09;82.07;;;38.13;;
26113;SDS011;13966;48.828;9.064;2022-12-18T01:25:36;90.70;;;41.40;;
26113;SDS011;13966;48.828;9.064;2022-12-18T01:28:02;89.57;;;42.63;;
26113;SDS011;13966;48.828;9.064;2022-12-18T01:30:28;89.20;;;41.22;;
26113;SDS011;13966;48.828;9.064;2022-12-18T01:32:54;91.00;;;38.70;;
26113;SDS011;13966;48.828;9.064;2022-12-18T01:35:20;82.97;;;37.90;;
26113;SDS011;13966;48.828;9.064;2022-12-18T01:37:46;83.63;;;39.53;;
26113;SDS011;13966;48.828;9.064;2022-12-18T01:40:12;87.55;;;39.33;;
26113;SDS011;13966;48.828;9.064;2022-12-18T01:42:39;91.35;;;40.92;;
26113;SDS011;13966;48.828;9.064;2022-12-18T01:47:50;87.40;;;38.75;;
26113;SDS011;13966;48.828;9.064;2022-12-18T01:50:19;80.88;;;38.45;;
26113;SDS011;13966;48.828;9.064;2022-12-18T01:52:53;82.55;;;38.90;;
26113;SDS011;13966;48.828;9.064;2022-12-18T01:55:20;94.22;;;39.80;;
26113;SDS011;13966;48.828;9.064;2022-12-18T01:57:48;86.25;;;39.88;;
26113;SDS011;13966;48.828;9.064;2022-12-18T02:00:17;82.70;;;37.38;;
26113;SDS011;13966;48.828;9.064;2022-12-18T02:02:44;96.07;;;40.65;;
26113;SDS011;13966;48.828;9.064;2022-12-18T02:05:11;90.38;;;39.90;;
26113;SDS011;13966;48.828;9.064;2022-12-18T02:07:48;97.57;;;43.28;;
26113;SDS011;13966;48.828;9.064;2022-12-18T02:10:21;88.40;;;41.22;;
26113;SDS011;13966;48.828;9.064;2022-12-18T02:12:56;85.32;;;39.83;;
26113;SDS011;13966;48.828;9.064;2022-12-18T02:15:36;100.35;;;44.90;;
26113;SDS011;13966;48.828;9.064;2022-12-18T02:20:36;90.78;;;41.03;;
26113;SDS011;13966;48.828;9.064;2022-12-18T02:23:09;89.82;;;37.58;;
26113;SDS011;13966;48.828;9.064;2022-12-18T02:28:22;87.95;;;39.72;;
26113;SDS011;13966;48.828;9.064;2022-12-18T02:30:51;87.22;;;37.00;;
26113;SDS011;13966;48.828;9.064;2022-12-18T02:33:20;81.75;;;36.92;;
26113;SDS011;13966;48.828;9.064;2022-12-18T02:35:50;86.95;;;39.35;;
26113;SDS011;13966;48.828;9.064;2022-12-18T02:38:17;81.60;;;38.08;;
26113;SDS011;13966;48.828;9.064;2022-12-18T02:40:43;83.88;;;38.72;;
26113;SDS011;13966;48.828;9.064;2022-12-18T02:43:11;82.03;;;37.63;;
26113;SDS011;13966;48.828;9.064;2022-12-18T02:45:47;85.00;;;38.65;;
26113;SDS011;13966;48.828;9.064;2022-12-18T02:48:13;84.13;;;39.58;;
26113;SDS011;13966;48.828;9.064;2022-12-18T02:50:41;87.82;;;39.20;;
26113;SDS011;13966;48.828;9.064;2022-12-18T02:56:09;82.53;;;37.92;;
26113;SDS011;13966;48.828;9.064;2022-12-18T03:03:36;89.35;;;37.83;;
26113;SDS011;13966;48.828;9.064;2022-12-18T03:06:08;81.35;;;35.38;;
26113;SDS011;13966;48.828;9.064;2022-12-18T03:08:39;77.63;;;36.75;;
26113;SDS011;13966;48.828;9.064;2022-12-18T03:16:17;83.55;;;38.50;;
26113;SDS011;13966;48.828;9.064;2022-12-18T03:18:46;86.05;;;37.83;;
26113;SDS011;13966;48.828;9.064;2022-12-18T03:21:13;86.10;;;36.28;;
26113;SDS011;13966;48.828;9.064;2022-12-18T03:23:42;77.40;;;37.05;;
26113;SDS011;13966;48.828;9.064;2022-12-18T03:26:10;79.82;;;36.92;;
26113;SDS011;13966;48.828;9.064;2022-12-18T03:28:38;78.28;;;36.70;;
26113;SDS011;13966;48.828;9.064;2022-12-18T03:31:06;78.40;;;35.35;;
26113;SDS011;13966;48.828;9.064;2022-12-18T03:36:05;81.50;;;36.17;;
26113;SDS011;13966;48.828;9.064;2022-12-18T03:38:32;81.82;;;36.30;;
26113;SDS011;13966;48.828;9.064;2022-12-18T03:41:11;79.00;;;37.25;;
26113;SDS011;13966;48.828;9.064;2022-12-18T03:43:48;74.97;;;36.10;;
26113;SDS011;13966;48.828;9.064;2022-12-18T03:48:48;73.80;;;32.92;;
26113;SDS011;13966;48.828;9.064;2022-12-18T03:51:22;76.85;;;35.72;;
26113;SDS011;13966;48.828;9.064;2022-12-18T03:54:08;73.20;;;35.97;;
26113;SDS011;13966;48.828;9.064;2022-12-18T03:56:42;84.88;;;36.83;;
26113;SDS011;13966;48.828;9.064;2022-12-18T03:59:10;77.78;;;35.90;;
26113;SDS011;13966;48.828;9.064;2022-12-18T04:01:39;75.60;;;34.72;;
26113;SDS011;13966;48.828;9.064;2022-12-18T04:04:06;78.03;;;35.70;;
26113;SDS011;13966;48.828;9.064;2022-12-18T04:06:34;74.93;;;35.13;;
26113;SDS011;13966;48.828;9.064;2022-12-18T04:09:01;77.72;;;34.03;;
26113;SDS011;13966;48.828;9.064;2022-12-18T04:11:27;72.75;;;34.22;;
26113;SDS011;13966;48.828;9.064;2022-12-18T04:13:56;74.10;;;33.35;;
26113;SDS011;13966;48.828;9.064;2022-12-18T04:16:23;68.55;;;32.97;;
26113;SDS011;13966;48.828;9.064;2022-12-18T04:18:49;70.43;;;32.53;;
26113;SDS011;13966;48.828;9.064;2022-12-18T04:21:15;68.40;;;32.88;;
26113;SDS011;13966;48.828;9.064;2022-12-18T04:23:41;71.47;;;32.80;;
26113;SDS011;13966;48.828;9.064;2022-12-18T04:26:07;72.22;;;32.63;;
26113;SDS011;13966;48.828;9.064;2022-12-18T04:28:34;68.22;;;32.25;;
26113;SDS011;13966;48.828;9.064;2022-12-18T04:31:00;67.55;;;33.45;;
26113;SDS011;13966;48.828;9.064;2022-12-18T04:33:26;68.32;;;30.90;;
26113;SDS011;13966;48.828;9.064;2022-12-18T04:35:52;64.80;;;31.63;;
26113;SDS011;13966;48.828;9.064;2022-12-18T04:38:18;78.18;;;32.60;;
26113;SDS011;13966;48.828;9.064;2022-12-18T04:40:44;76.20;;;33.50;;
26113;SDS011;13966;48.828;9.064;2022-12-18T04:43:10;75.90;;;32.60;;
26113;SDS011;13966;48.828;9.064;2022-12-18T04:45:36;70.78;;;32.78;;
26113;SDS011;13966;48.828;9.064;2022-12-18T04:48:02;71.97;;;32.78;;
26113;SDS011;13966;48.828;9.064;2022-12-18T04:50:28;71.75;;;32.95;;
26113;SDS011;13966;48.828;9.064;2022-12-18T04:52:55;68.43;;;31.73;;
26113;SDS011;13966;48.828;9.064;2022-12-18T04:55:21;69.60;;;32.28;;
26113;SDS011;13966;48.828;9.064;2022-12-18T04:57:50;70.57;;;32.55;;
26113;SDS011;13966;48.828;9.064;2022-12-18T05:00:16;68.38;;;32.22;;
26113;SDS011;13966;48.828;9.064;2022-12-18T05:02:42;70.28;;;33.42;;
26113;SDS011;13966;48.828;9.064;2022-12-18T05:05:08;65.82;;;32.20;;
26113;SDS011;13966;48.828;9.064;2022-12-18T05:07:34;65.18;;;29.83;;
26113;SDS011;13966;48.828;9.064;2022-12-18T05:10:00;72.05;;;33.25;;
26113;SDS011;13966;48.828;9.064;2022-12-18T05:12:26;65.97;;;31.40;;
26113;SDS011;13966;48.828;9.064;2022-12-18T05:14:52;64.47;;;31.45;;
26113;SDS011;13966;48.828;9.064;2022-12-18T05:17:18;64.00;;;31.05;;
26113;SDS011;13966;48.828;9.064;2022-12-18T05:19:44;65.55;;;31.65;;
26113;SDS011;13966;48.828;9.064;2022-12-18T05:22:10;69.05;;;32.10;;
26113;SDS011;13966;48.828;9.064;2022-12-18T05:24:37;72.18;;;31.23;;
26113;SDS011;13966;48.828;9.064;2022-12-18T05:27:03;91.03;;;34.28;;
26113;SDS011;13966;48.828;9.064;2022-12-18T05:29:29;66.28;;;32.35;;
26113;SDS011;13966;48.828;9.064;2022-12-18T05:31:55;68.28;;;30.92;;
26113;SDS011;13966;48.828;9.064;2022-12-18T05:34:21;72.03;;;32.63;;
26113;SDS011;13966;48.828;9.064;2022-12-18T05:36:47;66.45;;;31.20;;
26113;SDS011;13966;48.828;9.064;2022-12-18T05:39:13;70.60;;;32.08;;
26113;SDS011;13966;48.828;9.064;2022-12-18T05:41:39;73.97;;;33.13;;
26113;SDS011;13966;48.828;9.064;2022-12-18T05:44:05;66.90;;;32.15;;
26113;SDS011;13966;48.828;9.064;2022-12-18T05:46:31;70.00;;;32.30;;
26113;SDS011;13966;48.828;9.064;2022-12-18T05:49:00;67.15;;;31.88;;
26113;SDS011;13966;48.828;9.064;2022-12-18T05:51:26;66.15;;;30.85;;
26113;SDS011;13966;48.828;9.064;2022-12-18T05:53:53;70.32;;;30.98;;
26113;SDS011;13966;48.828;9.064;2022-12-18T05:56:19;65.43;;;30.08;;
26113;SDS011;13966;48.828;9.064;2022-12-18T05:58:46;64.82;;;30.08;;
26113;SDS011;13966;48.828;9.064;2022-12-18T06:03:38;63.85;;;29.90;;
26113;SDS011;13966;48.828;9.064;2022-12-18T06:06:12;75.07;;;30.17;;
26113;SDS011;13966;48.828;9.064;2022-12-18T06:08:38;68.60;;;30.83;;
26113;SDS011;13966;48.828;9.064;2022-12-18T06:11:04;65.68;;;30.00;;
26113;SDS011;13966;48.828;9.064;2022-12-18T06:13:30;61.88;;;29.30;;
26113;SDS011;13966;48.828;9.064;2022-12-18T06:15:56;65.45;;;29.38;;
26113;SDS011;13966;48.828;9.064;2022-12-18T06:18:22;67.82;;;31.17;;
26113;SDS011;13966;48.828;9.064;2022-12-18T06:20:55;65.25;;;30.77;;
26113;SDS011;13966;48.828;9.064;2022-12-18T06:23:21;75.65;;;31.95;;
26113;SDS011;13966;48.828;9.064;2022-12-18T06:25:47;67.90;;;32.10;;
26113;SDS011;13966;48.828;9.064;2022-12-18T06:28:13;62.83;;;30.08;;
26113;SDS011;13966;48.828;9.064;2022-12-18T06:30:39;71.53;;;29.70;;
26113;SDS011;13966;48.828;9.064;2022-12-18T06:33:05;65.97;;;30.88;;
26113;SDS011;13966;48.828;9.064;2022-12-18T06:35:31;65.47;;;29.73;;
26113;SDS011;13966;48.828;9.064;2022-12-18T06:37:57;68.57;;;32.20;;
26113;SDS011;13966;48.828;9.064;2022-12-18T06:40:23;64.30;;;28.90;;
26113;SDS011;13966;48.828;9.064;2022-12-18T06:42:49;64.72;;;28.90;;
26113;SDS011;13966;48.828;9.064;2022-12-18T06:45:15;68.55;;;29.50;;
26113;SDS011;13966;48.828;9.064;2022-12-18T06:47:42;64.97;;;30.35;;
26113;SDS011;13966;48.828;9.064;2022-12-18T06:50:08;65.57;;;29.83;;
26113;SDS011;13966;48.828;9.064;2022-12-18T06:52:34;63.30;;;29.33;;
26113;SDS011;13966;48.828;9.064;2022-12-18T06:55:01;64.32;;;28.45;;
26113;SDS011;13966;48.828;9.064;2022-12-18T06:57:27;59.53;;;28.23;;
26113;SDS011;13966;48.828;9.064;2022-12-18T06:59:54;58.45;;;28.55;;
26113;SDS011;13966;48.828;9.064;2022-12-18T07:02:20;62.80;;;27.60;;
26113;SDS011;13966;48.828;9.064;2022-12-18T07:04:46;62.85;;;29.30;;
26113;SDS011;13966;48.828;9.064;2022-12-18T07:07:15;61.95;;;26.98;;
26113;SDS011;13966;48.828;9.064;2022-12-18T07:09:41;56.85;;;27.05;;
26113;SDS011;13966;48.828;9.064;2022-12-18T07:12:07;62.55;;;27.10;;
26113;SDS011;13966;48.828;9.064;2022-12-18T07:14:33;75.25;;;33.72;;
26113;SDS011;13966;48.828;9.064;2022-12-18T07:16:59;68.18;;;32.13;;
26113;SDS011;13966;48.828;9.064;2022-12-18T07:19:25;75.70;;;31.77;;
26113;SDS011;13966;48.828;9.064;2022-12-18T07:21:51;103.93;;;41.30;;
26113;SDS011;13966;48.828;9.064;2022-12-18T07:24:17;87.32;;;38.13;;
26113;SDS011;13966;48.828;9.064;2022-12-18T07:26:46;95.05;;;41.17;;
26113;SDS011;13966;48.828;9.064;2022-12-18T07:29:13;91.97;;;38.30;;
26113;SDS011;13966;48.828;9.064;2022-12-18T07:31:39;87.25;;;39.15;;
26113;SDS011;13966;48.828;9.064;2022-12-18T07:34:05;74.43;;;36.88;;
26113;SDS011;13966;48.828;9.064;2022-12-18T07:36:31;74.30;;;35.95;;
26113;SDS011;13966;48.828;9.064;2022-12-18T07:38:57;71.40;;;34.15;;
26113;SDS011;13966;48.828;9.064;2022-12-18T07:41:23;77.00;;;35.17;;
26113;SDS011;13966;48.828;9.064;2022-12-18T07:43:49;83.70;;;37.25;;
26113;SDS011;13966;48.828;9.064;2022-12-18T07:46:15;81.93;;;36.00;;
26113;SDS011;13966;48.828;9.064;2022-12-18T07:48:44;84.57;;;37.03;;
26113;SDS011;13966;48.828;9.064;2022-12-18T07:51:10;91.35;;;37.97;;
26113;SDS011;13966;48.828;9.064;2022-12-18T07:53:39;99.28;;;41.95;;
26113;SDS011;13966;48.828;9.064;2022-12-18T07:56:06;111.80;;;45.35;;
26113;SDS011;13966;48.828;9.064;2022-12-18T07:58:33;132.35;;;50.83;;
26113;SDS011;13966;48.828;9.064;2022-12-18T08:01:05;93.70;;;37.85;;
26113;SDS011;13966;48.828;9.064;2022-12-18T08:03:32;80.38;;;34.67;;
26113;SDS011;13966;48.828;9.064;2022-12-18T08:06:02;71.28;;;31.00;;
26113;SDS011;13966;48.828;9.064;2022-12-18T08:08:28;68.07;;;31.20;;
26113;SDS011;13966;48.828;9.064;2022-12-18T08:10:55;68.20;;;33.88;;
26113;SDS011;13966;48.828;9.064;2022-12-18T08:13:21;76.13;;;32.25;;
26113;SDS011;13966;48.828;9.064;2022-12-18T08:15:55;67.07;;;33.40;;
26113;SDS011;13966;48.828;9.064;2022-12-18T08:18:21;66.82;;;30.35;;
26113;SDS011;13966;48.828;9.064;2022-12-18T08:20:48;63.15;;;30.20;;
26113;SDS011;13966;48.828;9.064;2022-12-18T08:23:14;64.63;;;29.92;;
26113;SDS011;13966;48.828;9.064;2022-12-18T08:25:40;72.97;;;30.77;;
26113;SDS011;13966;48.828;9.064;2022-12-18T08:28:06;70.43;;;32.50;;
26113;SDS011;13966;48.828;9.064;2022-12-18T08:30:32;74.63;;;32.65;;
26113;SDS011;13966;48.828;9.064;2022-12-18T08:32:58;68.40;;;32.40;;
26113;SDS011;13966;48.828;9.064;2022-12-18T08:35:24;76.47;;;34.75;;
26113;SDS011;13966;48.828;9.064;2022-12-18T08:37:50;62.92;;;31.45;;
26113;SDS011;13966;48.828;9.064;2022-12-18T08:40:16;62.65;;;31.55;;
26113;SDS011;13966;48.828;9.064;2022-12-18T08:42:42;71.38;;;32.75;;
26113;SDS011;13966;48.828;9.064;2022-12-18T08:45:26;65.95;;;30.92;;
26113;SDS011;13966;48.828;9.064;2022-12-18T08:47:53;62.72;;;31.73;;
26113;SDS011;13966;48.828;9.064;2022-12-18T08:50:19;73.25;;;31.08;;
26113;SDS011;13966;48.828;9.064;2022-12-18T08:52:45;68.07;;;30.55;;
26113;SDS011;13966;48.828;9.064;2022-12-18T08:55:11;68.05;;;32.72;;
26113;SDS011;13966;48.828;9.064;2022-12-18T08:57:37;65.55;;;32.25;;
26113;SDS011;13966;48.828;9.064;2022-12-18T09:00:03;63.92;;;30.58;;
26113;SDS011;13966;48.828;9.064;2022-12-18T09:02:30;70.22;;;33.47;;
26113;SDS011;13966;48.828;9.064;2022-12-18T09:04:56;64.90;;;31.50;;
26113;SDS011;13966;48.828;9.064;2022-12-18T09:07:22;65.72;;;31.20;;
26113;SDS011;13966;48.828;9.064;2022-12-18T09:09:48;67.97;;;32.45;;
26113;SDS011;13966;48.828;9.064;2022-12-18T09:12:14;67.68;;;32.08;;
26113;SDS011;13966;48.828;9.064;2022-12-18T09:14:40;61.72;;;30.70;;
26113;SDS011;13966;48.828;9.064;2022-12-18T09:17:06;64.20;;;31.05;;
26113;SDS011;13966;48.828;9.064;2022-12-18T09:19:32;63.92;;;29.92;;
26113;SDS011;13966;48.828;9.064;2022-12-18T09:21:58;64.45;;;31.42;;
26113;SDS011;13966;48.828;9.064;2022-12-18T09:24:24;60.38;;;30.27;;
26113;SDS011;13966;48.828;9.064;2022-12-18T09:26:52;64.07;;;31.25;;
26113;SDS011;13966;48.828;9.064;2022-12-18T09:29:19;59.08;;;30.40;;
26113;SDS011;13966;48.828;9.064;2022-12-18T09:31:45;59.40;;;30.70;;
26113;SDS011;13966;48.828;9.064;2022-12-18T09:34:12;63.53;;;30.60;;
26113;SDS011;13966;48.828;9.064;2022-12-18T09:36:38;58.97;;;29.02;;
26113;SDS011;13966;48.828;9.064;2022-12-18T09:39:04;54.47;;;28.60;;
26113;SDS011;13966;48.828;9.064;2022-12-18T09:43:57;56.47;;;28.60;;
26113;SDS011;13966;48.828;9.064;2022-12-18T09:46:28;56.10;;;28.30;;
26113;SDS011;13966;48.828;9.064;2022-12-18T09:48:57;59.50;;;27.88;;
26113;SDS011;13966;48.828;9.064;2022-12-18T09:54:21;54.22;;;27.95;;
26113;SDS011;13966;48.828;9.064;2022-12-18T09:56:48;56.25;;;27.58;;
26113;SDS011;13966;48.828;9.064;2022-12-18T10:01:43;55.03;;;28.38;;
26113;SDS011;13966;48.828;9.064;2022-12-18T10:04:09;60.47;;;30.10;;
26113;SDS011;13966;48.828;9.064;2022-12-18T10:06:37;57.97;;;29.17;;
26113;SDS011;13966;48.828;9.064;2022-12-18T10:11:43;58.63;;;29.52;;
26113;SDS011;13966;48.828;9.064;2022-12-18T10:14:21;56.85;;;27.17;;
26113;SDS011;13966;48.828;9.064;2022-12-18T10:19:27;52.45;;;26.00;;
26113;SDS011;13966;48.828;9.064;2022-12-18T10:24:37;52.03;;;26.15;;
26113;SDS011;13966;48.828;9.064;2022-12-18T10:27:09;55.35;;;26.60;;
26113;SDS011;13966;48.828;9.064;2022-12-18T10:29:36;54.25;;;26.13;;
26113;SDS011;13966;48.828;9.064;2022-12-18T10:32:03;49.65;;;26.23;;
26113;SDS011;13966;48.828;9.064;2022-12-18T10:34:29;54.92;;;26.35;;
26113;SDS011;13966;48.828;9.064;2022-12-18T10:36:55;53.95;;;26.02;;
26113;SDS011;13966;48.828;9.064;2022-12-18T10:39:22;47.90;;;25.08;;
26113;SDS011;13966;48.828;9.064;2022-12-18T10:41:50;53.17;;;26.45;;
26113;SDS011;13966;48.828;9.064;2022-12-18T10:44:20;45.92;;;24.48;;
26113;SDS011;13966;48.828;9.064;2022-12-18T10:46:48;45.15;;;24.35;;
26113;SDS011;13966;48.828;9.064;2022-12-18T10:49:25;47.28;;;23.85;;
26113;SDS011;13966;48.828;9.064;2022-12-18T10:52:03;44.15;;;23.88;;
26113;SDS011;13966;48.828;9.064;2022-12-18T10:54:30;50.00;;;25.73;;
26113;SDS011;13966;48.828;9.064;2022-12-18T10:59:54;39.78;;;24.13;;
26113;SDS011;13966;48.828;9.064;2022-12-18T11:02:32;44.58;;;23.55;;
26113;SDS011;13966;48.828;9.064;2022-12-18T11:04:59;42.45;;;24.00;;
26113;SDS011;13966;48.828;9.064;2022-12-18T11:07:26;43.00;;;23.70;;
26113;SDS011;13966;48.828;9.064;2022-12-18T11:10:04;45.28;;;23.90;;
26113;SDS011;13966;48.828;9.064;2022-12-18T11:12:31;41.70;;;22.58;;
26113;SDS011;13966;48.828;9.064;2022-12-18T11:14:57;42.70;;;23.85;;
26113;SDS011;13966;48.828;9.064;2022-12-18T11:17:28;41.03;;;24.52;;
26113;SDS011;13966;48.828;9.064;2022-12-18T11:20:05;38.63;;;23.33;;
26113;SDS011;13966;48.828;9.064;2022-12-18T11:22:33;37.03;;;22.13;;
26113;SDS011;13966;48.828;9.064;2022-12-18T11:25:01;37.38;;;21.25;;
26113;SDS011;13966;48.828;9.064;2022-12-18T11:27:28;56.38;;;30.98;;
26113;SDS011;13966;48.828;9.064;2022-12-18T11:30:07;48.90;;;27.70;;
26113;SDS011;13966;48.828;9.064;2022-12-18T11:32:40;35.05;;;21.48;;
26113;SDS011;13966;48.828;9.064;2022-12-18T11:35:14;32.10;;;20.45;;
26113;SDS011;13966;48.828;9.064;2022-12-18T11:37:43;33.92;;;21.25;;
26113;SDS011;13966;48.828;9.064;2022-12-18T11:40:22;34.72;;;22.35;;
26113;SDS011;13966;48.828;9.064;2022-12-18T11:42:58;35.88;;;22.02;;
26113;SDS011;13966;48.828;9.064;2022-12-18T11:45:30;33.88;;;22.20;;
26113;SDS011;13966;48.828;9.064;2022-12-18T11:50:26;34.67;;;22.13;;
26113;SDS011;13966;48.828;9.064;2022-12-18T11:52:54;34.17;;;21.92;;
26113;SDS011;13966;48.828;9.064;2022-12-18T11:55:33;35.35;;;22.42;;
26113;SDS011;13966;48.828;9.064;2022-12-18T12:00:31;36.25;;;22.17;;
26113;SDS011;13966;48.828;9.064;2022-12-18T12:08:26;38.00;;;23.30;;
26113;SDS011;13966;48.828;9.064;2022-12-18T12:23:35;49.33;;;26.00;;
26113;SDS011;13966;48.828;9.064;2022-12-18T12:28:52;42.42;;;24.75;;
26113;SDS011;13966;48.828;9.064;2022-12-18T12:31:29;46.85;;;25.40;;
26113;SDS011;13966;48.828;9.064;2022-12-18T12:39:30;51.47;;;29.60;;
26113;SDS011;13966;48.828;9.064;2022-12-18T12:41:57;47.78;;;27.55;;
26113;SDS011;13966;48.828;9.064;2022-12-18T12:44:43;44.67;;;24.67;;
26113;SDS011;13966;48.828;9.064;2022-12-18T12:47:12;48.28;;;25.83;;
26113;SDS011;13966;48.828;9.064;2022-12-18T12:49:40;74.77;;;34.23;;
26113;SDS011;13966;48.828;9.064;2022-12-18T12:52:13;49.05;;;25.88;;
26113;SDS011;13966;48.828;9.064;2022-12-18T12:54:40;58.05;;;28.67;;
26113;SDS011;13966;48.828;9.064;2022-12-18T12:57:16;48.53;;;25.83;;
26113;SDS011;13966;48.828;9.064;2022-12-18T13:07:16;48.40;;;25.23;;
26113;SDS011;13966;48.828;9.064;2022-12-18T13:12:30;47.47;;;25.00;;
26113;SDS011;13966;48.828;9.064;2022-12-18T13:15:22;47.50;;;24.98;;
26113;SDS011;13966;48.828;9.064;2022-12-18T13:17:48;45.97;;;25.15;;
26113;SDS011;13966;48.828;9.064;2022-12-18T13:20:15;47.85;;;24.67;;
26113;SDS011;13966;48.828;9.064;2022-12-18T13:22:43;44.88;;;24.90;;
26113;SDS011;13966;48.828;9.064;2022-12-18T13:30:53;49.22;;;25.98;;
26113;SDS011;13966;48.828;9.064;2022-12-18T13:35:52;44.20;;;24.27;;
26113;SDS011;13966;48.828;9.064;2022-12-18T13:45:49;45.35;;;23.88;;
26113;SDS011;13966;48.828;9.064;2022-12-18T13:48:24;47.90;;;24.25;;
26113;SDS011;13966;48.828;9.064;2022-12-18T13:50:59;47.78;;;24.48;;
26113;SDS011;13966;48.828;9.064;2022-12-18T13:53:30;46.53;;;24.42;;
26113;SDS011;13966;48.828;9.064;2022-12-18T13:55:57;42.67;;;23.20;;
26113;SDS011;13966;48.828;9.064;2022-12-18T13:58:23;45.42;;;22.58;;
26113;SDS011;13966;48.828;9.064;2022-12-18T14:00:49;50.22;;;24.67;;
26113;SDS011;13966;48.828;9.064;2022-12-18T14:03:18;45.17;;;23.23;;
26113;SDS011;13966;48.828;9.064;2022-12-18T14:05:44;42.40;;;21.35;;
26113;SDS011;13966;48.828;9.064;2022-12-18T14:08:12;45.17;;;23.17;;
26113;SDS011;13966;48.828;9.064;2022-12-18T14:10:39;45.85;;;22.73;;
26113;SDS011;13966;48.828;9.064;2022-12-18T14:13:06;45.05;;;21.88;;
26113;SDS011;13966;48.828;9.064;2022-12-18T14:15:41;43.45;;;22.52;;
26113;SDS011;13966;48.828;9.064;2022-12-18T14:20:59;48.40;;;24.10;;
26113;SDS011;13966;48.828;9.064;2022-12-18T14:25:52;48.92;;;23.75;;
26113;SDS011;13966;48.828;9.064;2022-12-18T14:28:18;49.03;;;23.52;;
26113;SDS011;13966;48.828;9.064;2022-12-18T14:30:46;47.50;;;23.02;;
26113;SDS011;13966;48.828;9.064;2022-12-18T14:33:13;47.85;;;23.27;;
26113;SDS011;13966;48.828;9.064;2022-12-18T14:35:51;51.17;;;23.38;;
26113;SDS011;13966;48.828;9.064;2022-12-18T14:38:31;49.08;;;23.25;;
26113;SDS011;13966;48.828;9.064;2022-12-18T14:43:24;53.70;;;23.90;;
26113;SDS011;13966;48.828;9.064;2022-12-18T14:45:50;52.42;;;24.85;;
26113;SDS011;13966;48.828;9.064;2022-12-18T14:48:21;51.42;;;24.10;;
26113;SDS011;13966;48.828;9.064;2022-12-18T14:50:58;49.08;;;23.92;;
26113;SDS011;13966;48.828;9.064;2022-12-18T14:53:35;56.42;;;25.20;;
26113;SDS011;13966;48.828;9.064;2022-12-18T14:56:02;54.10;;;25.63;;
26113;SDS011;13966;48.828;9.064;2022-12-18T14:58:28;50.67;;;24.48;;
26113;SDS011;13966;48.828;9.064;2022-12-18T15:00:55;55.13;;;25.10;;
26113;SDS011;13966;48.828;9.064;2022-12-18T15:03:21;58.55;;;26.73;;
26113;SDS011;13966;48.828;9.064;2022-12-18T15:05:47;52.55;;;26.10;;
26113;SDS011;13966;48.828;9.064;2022-12-18T15:08:24;55.28;;;26.27;;
26113;SDS011;13966;48.828;9.064;2022-12-18T15:10:52;57.90;;;28.58;;
26113;SDS011;13966;48.828;9.064;2022-12-18T15:13:21;59.97;;;28.05;;
26113;SDS011;13966;48.828;9.064;2022-12-18T15:15:48;38.78;;;19.48;;
26113;SDS011;13966;48.828;9.064;2022-12-18T15:18:15;62.55;;;28.98;;
26113;SDS011;13966;48.828;9.064;2022-12-18T15:25:40;66.07;;;29.45;;
26113;SDS011;13966;48.828;9.064;2022-12-18T15:28:19;62.67;;;27.98;;
26113;SDS011;13966;48.828;9.064;2022-12-18T15:36:18;65.55;;;28.38;;
26113;SDS011;13966;48.828;9.064;2022-12-18T15:38:48;60.15;;;27.67;;
26113;SDS011;13966;48.828;9.064;2022-12-18T15:41:15;62.72;;;27.73;;
26113;SDS011;13966;48.828;9.064;2022-12-18T15:43:41;64.85;;;28.65;;
26113;SDS011;13966;48.828;9.064;2022-12-18T15:46:15;67.30;;;28.80;;
26113;SDS011;13966;48.828;9.064;2022-12-18T15:48:44;63.50;;;29.73;;
26113;SDS011;13966;48.828;9.064;2022-12-18T15:53:43;69.75;;;30.73;;
26113;SDS011;13966;48.828;9.064;2022-12-18T15:56:10;68.90;;;32.13;;
26113;SDS011;13966;48.828;9.064;2022-12-18T15:58:54;65.38;;;30.38;;
26113;SDS011;13966;48.828;9.064;2022-12-18T16:01:22;65.55;;;29.40;;
26113;SDS011;13966;48.828;9.064;2022-12-18T16:03:48;73.35;;;29.70;;
26113;SDS011;13966;48.828;9.064;2022-12-18T16:06:14;62.63;;;29.77;;
26113;SDS011;13966;48.828;9.064;2022-12-18T16:08:40;70.10;;;30.45;;
26113;SDS011;13966;48.828;9.064;2022-12-18T16:11:10;65.25;;;28.90;;
26113;SDS011;13966;48.828;9.064;2022-12-18T16:13:40;65.95;;;29.58;;
26113;SDS011;13966;48.828;9.064;2022-12-18T16:16:07;68.15;;;29.70;;
26113;SDS011;13966;48.828;9.064;2022-12-18T16:18:34;61.90;;;29.15;;
26113;SDS011;13966;48.828;9.064;2022-12-18T16:21:00;66.85;;;30.58;;
26113;SDS011;13966;48.828;9.064;2022-12-18T16:23:26;67.97;;;30.42;;
26113;SDS011;13966;48.828;9.064;2022-12-18T16:25:52;67.60;;;30.15;;
26113;SDS011;13966;48.828;9.064;2022-12-18T16:28:18;62.13;;;28.30;;
26113;SDS011;13966;48.828;9.064;2022-12-18T16:30:44;62.25;;;27.98;;
26113;SDS011;13966;48.828;9.064;2022-12-18T16:33:10;63.78;;;28.55;;